Portada
METAR-TAF:

METAR-TAF

Aeroports :

Chandigar, Índia

latitud: 30-40-29N, longitud: 76-47-26E, altitud: 314 m

METAR: manca

Hora: 06:29 (00:59 UTC)

Pronòstic

L'informe es va fer fa 3 hores i 29 minuts, a les 21:30 UTC
Pronòstic vàlid del 22 a les 00 UTC al 22 a les 12 UTC
Vent 2 kt amb direcció variable
Visibilitat: 1500 m
Núvols disperses a una alçada de 9000 ft
Cel ennuvolat a una alçada de 25000 ft
boirina
Evolucionant progressivament
l' 22 a les 04 UTC al 22 a les 05 UTC
Vent 5 kt del Oest/Nord-Oest
Visibilitat: 2500 m
Núvols disperses a una alçada de 10000 ft
Cel ennuvolat a una alçada de 20000 ft
boirina
Evolucionant progressivament
l' 22 a les 09 UTC al 22 a les 10 UTC
Visibilitat: 4000 m
calitja

TAF: VICG 212130Z 2200/2212 VRB02KT 1500 BR SCT090 BKN250 BECMG 2204/2205 30005KT 2500 BR SCT100 BKN200 BECMG 2209/2210 4000 HZ

Observacions i pronòstics meteorològics de més de 4000 aeroports (METAR i TAF).

Les estacions disponibles són els punts grocs i vermells al mapa.

Posi el ratolí al punt desitjat per veure el nom de l'estació.

Feu clic per veure les observacions i els pronòstics meteorològics.

Per canviar el mapa: feu clic els botons verds amb una creu de color negre per apropar; al botó verd amb un guió per allunyar la imatge; o en les fletxes verdes per a mapes adjacents.


METAR-TAF: